Robertsville, Arkansas
Current Conditions -  °F | °C
As of 7:30 AM on Thursday 18 Dec 2014 (Local Time) from KRUE Reporting Station
Overcast Overcast  
Wind Chill: 36°   Ceiling: 900
Heat Index: 36°   Visibility: 7mi
Dew Point: 34°   Wind: 3mph
Humidity: 93%   Direction: 90°E
Pressure: 30.22"   Gusts: NA
Location:  35.2814°N, 92.791°W
Report Text: KRUE 181330Z AUTO 09003KT 7SM OVC009 02/01 A3022 RMK AO2 T00220011
Loading
Personal Weather Stations






























Interactive Weather Map New forecast layout! Learn more

10-Day Weather Forecast

Advertisements
Track Severe Weather on mobile